Time;durP1;ratioP1;P1;durP2;ratioP2;P2;SDS_P1;SDS_P2;PMS_P1;PMS_P2;Temp;Humidity;BMP_temperature;BMP_pressure;BME280_temperature;BME280_humidity;BME280_pressure;Samples;Min_cycle;Max_cycle;Signal;HPM_P1;HPM_P2
2023/05/07 00:01:16;;;;;;;0.52;0.52;;;15.30;82.00;;;;;;5095088;28;20050;-71
2023/05/07 00:03:42;;;;;;;0.55;0.55;;;15.20;82.00;;;;;;5077779;28;20044;-71
2023/05/07 00:06:08;;;;;;;0.50;0.50;;;15.20;81.90;;;;;;5113310;28;20067;-71
2023/05/07 00:08:33;;;;;;;0.75;0.47;;;15.20;82.00;;;;;;5113470;28;20035;-71
2023/05/07 00:10:59;;;;;;;0.75;0.60;;;15.20;82.00;;;;;;5094833;28;20035;-71
2023/05/07 00:13:24;;;;;;;0.95;0.60;;;15.30;82.10;;;;;;5077703;28;20038;-71
2023/05/07 00:15:50;;;;;;;0.55;0.50;;;15.20;82.10;;;;;;5094740;28;20055;-71
2023/05/07 00:18:16;;;;;;;0.47;0.47;;;15.20;82.10;;;;;;5112725;28;20085;-71
2023/05/07 00:20:41;;;;;;;0.50;0.50;;;15.10;82.20;;;;;;5112837;28;20073;-70
2023/05/07 00:23:07;;;;;;;0.47;0.47;;;15.00;82.20;;;;;;5113068;28;20400;-71
2023/05/07 00:25:32;;;;;;;0.60;0.60;;;15.10;82.30;;;;;;5092448;28;20153;-71
2023/05/07 00:28:03;;;;;;;0.60;0.60;;;15.00;82.30;;;;;;5094721;28;20039;-71
2023/05/07 00:30:29;;;;;;;0.57;0.57;;;15.10;82.40;;;;;;5095032;28;20032;-71
2023/05/07 00:32:54;;;;;;;0.60;0.60;;;15.00;82.30;;;;;;5094341;28;20122;-71
2023/05/07 00:35:20;;;;;;;1.20;0.73;;;15.00;82.40;;;;;;5092632;28;20036;-71
2023/05/07 00:37:45;;;;;;;0.50;0.50;;;15.00;82.40;;;;;;5094433;28;20043;-70
2023/05/07 00:40:11;;;;;;;0.52;0.52;;;15.00;82.40;;;;;;5112537;28;20036;-71
2023/05/07 00:42:37;;;;;;;0.70;0.55;;;15.00;82.50;;;;;;5112537;28;20044;-72
2023/05/07 00:45:03;;;;;;;0.70;0.70;;;15.00;82.50;;;;;;5112504;28;20040;-71
2023/05/07 00:47:29;;;;;;;0.73;0.57;;;15.00;82.50;;;;;;5112867;28;20051;-71
2023/05/07 00:49:55;;;;;;;0.40;0.40;;;14.90;82.50;;;;;;5077363;28;20606;-71
2023/05/07 00:52:25;;;;;;;0.80;0.68;;;14.90;82.60;;;;;;5112277;28;20050;-71
2023/05/07 00:54:51;;;;;;;1.08;0.50;;;14.90;82.60;;;;;;5112537;28;20123;-71
2023/05/07 00:57:17;;;;;;;0.60;0.60;;;14.90;82.70;;;;;;5112611;28;20112;-71
2023/05/07 00:59:43;;;;;;;0.63;0.50;;;14.90;82.70;;;;;;5094057;28;20047;-71
2023/05/07 01:02:08;;;;;;;0.60;0.60;;;14.80;82.70;;;;;;5112499;28;20067;-71
2023/05/07 01:04:35;;;;;;;0.70;0.50;;;14.90;82.80;;;;;;5112398;28;20504;-72
2023/05/07 01:07:02;;;;;;;0.60;0.50;;;14.80;82.80;;;;;;5093861;28;20627;-71
2023/05/07 01:09:28;;;;;;;0.50;0.50;;;14.80;82.80;;;;;;5076302;28;20135;-71
2023/05/07 01:11:57;;;;;;;0.88;0.70;;;14.80;82.80;;;;;;5094204;28;20051;-71
2023/05/07 01:14:23;;;;;;;0.73;0.70;;;14.70;82.80;;;;;;5092073;28;20032;-70
2023/05/07 01:16:50;;;;;;;0.70;0.70;;;14.80;82.80;;;;;;5111981;28;20096;-71
2023/05/07 01:19:18;;;;;;;1.83;0.63;;;14.70;82.80;;;;;;5093588;28;20043;-71
2023/05/07 01:21:47;;;;;;;0.50;0.50;;;14.70;82.80;;;;;;5111975;28;20127;-71
2023/05/07 01:24:13;;;;;;;0.63;0.63;;;14.80;82.90;;;;;;5093741;28;20115;-71
2023/05/07 01:26:39;;;;;;;0.93;0.70;;;14.70;82.90;;;;;;5113814;28;20146;-70
2023/05/07 01:29:05;;;;;;;0.80;0.73;;;14.70;83.00;;;;;;5115401;28;20071;-71
2023/05/07 01:31:33;;;;;;;0.60;0.60;;;14.70;82.90;;;;;;5097135;28;20086;-71
2023/05/07 01:34:00;;;;;;;0.88;0.70;;;14.70;83.00;;;;;;5097276;28;20088;-69
2023/05/07 01:36:28;;;;;;;0.60;0.60;;;14.70;83.00;;;;;;5115327;28;20092;-71
2023/05/07 01:38:54;;;;;;;0.60;0.50;;;14.70;83.00;;;;;;5115252;28;20477;-71
2023/05/07 01:41:20;;;;;;;1.17;0.70;;;14.60;82.90;;;;;;5080220;28;20176;-71
2023/05/07 01:43:47;;;;;;;0.88;0.68;;;14.70;83.00;;;;;;5115411;28;20508;-71
2023/05/07 01:46:14;;;;;;;0.70;0.70;;;14.70;83.00;;;;;;5115412;28;20039;-71
2023/05/07 01:48:40;;;;;;;0.80;0.80;;;14.70;83.00;;;;;;5115446;28;20032;-71
2023/05/07 01:51:06;;;;;;;0.70;0.70;;;14.70;83.00;;;;;;5096951;28;20043;-71
2023/05/07 01:53:40;;;;;;;0.68;0.68;;;14.70;82.90;;;;;;5115365;28;20088;-71
2023/05/07 01:56:06;;;;;;;0.60;0.60;;;14.60;83.00;;;;;;5096378;28;20134;-70
2023/05/07 01:58:32;;;;;;;0.73;0.60;;;14.60;82.90;;;;;;5115081;28;20123;-71
2023/05/07 02:00:57;;;;;;;0.65;0.65;;;14.70;83.00;;;;;;5115136;28;20063;-71
2023/05/07 02:03:23;;;;;;;0.75;0.75;;;14.60;83.00;;;;;;5096590;28;20048;-71
2023/05/07 02:05:48;;;;;;;0.90;0.70;;;14.60;83.00;;;;;;5115261;28;20157;-71
2023/05/07 02:08:14;;;;;;;0.80;0.70;;;14.60;83.00;;;;;;5114934;28;20042;-71
2023/05/07 02:10:40;;;;;;;1.00;0.90;;;14.60;83.00;;;;;;5114756;28;20038;-71
2023/05/07 02:13:06;;;;;;;0.60;0.60;;;14.60;83.00;;;;;;5096409;28;20060;-71
2023/05/07 02:15:31;;;;;;;0.55;0.55;;;14.60;83.00;;;;;;5114620;28;20062;-70
2023/05/07 02:18:03;;;;;;;1.05;0.70;;;14.60;83.00;;;;;;5115179;28;20775;-71
2023/05/07 02:20:29;;;;;;;0.70;0.70;;;14.60;83.10;;;;;;5096956;28;20485;-71
2023/05/07 02:22:54;;;;;;;0.80;0.80;;;14.60;83.10;;;;;;5095830;28;20126;-71
2023/05/07 02:25:20;;;;;;;0.52;0.52;;;14.60;83.10;;;;;;5114523;28;20485;-71
2023/05/07 02:27:46;;;;;;;0.70;0.70;;;14.60;83.10;;;;;;5114437;28;20039;-71
2023/05/07 02:30:11;;;;;;;1.15;0.95;;;14.70;83.20;;;;;;5114624;28;20477;-71
2023/05/07 02:32:37;;;;;;;1.20;0.95;;;14.70;83.10;;;;;;5096721;28;20054;-71
2023/05/07 02:35:03;;;;;;;0.93;0.73;;;14.60;83.10;;;;;;5115047;28;20071;-71
2023/05/07 02:37:29;;;;;;;0.70;0.70;;;14.70;83.20;;;;;;5113182;28;20046;-71
2023/05/07 02:39:54;;;;;;;0.77;0.77;;;14.60;83.20;;;;;;5114946;28;20052;-72
2023/05/07 02:42:20;;;;;;;1.08;0.98;;;14.60;83.20;;;;;;5114348;28;20032;-71
2023/05/07 02:44:46;;;;;;;1.33;0.90;;;14.60;83.20;;;;;;5114805;28;20040;-71
2023/05/07 02:47:12;;;;;;;1.00;0.90;;;14.60;83.20;;;;;;5114722;28;20035;-71
2023/05/07 02:49:38;;;;;;;0.68;0.68;;;14.60;83.20;;;;;;5114237;28;20073;-71
2023/05/07 02:52:04;;;;;;;1.20;0.85;;;14.60;83.20;;;;;;5096015;28;20043;-71
2023/05/07 02:54:30;;;;;;;1.20;1.10;;;14.60;83.20;;;;;;5114034;28;20073;-71
2023/05/07 02:56:56;;;;;;;0.90;0.90;;;14.60;83.20;;;;;;5114024;28;20031;-72
2023/05/07 02:59:21;;;;;;;0.95;0.85;;;14.60;83.20;;;;;;5114399;28;20120;-71
2023/05/07 03:01:48;;;;;;;1.25;1.15;;;14.70;83.30;;;;;;5113836;28;20027;-71
2023/05/07 03:04:13;;;;;;;1.15;1.05;;;14.60;83.20;;;;;;5096087;28;20031;-71
2023/05/07 03:06:39;;;;;;;1.35;0.93;;;14.60;83.30;;;;;;5095558;28;20397;-71
2023/05/07 03:09:05;;;;;;;0.80;0.80;;;14.60;83.20;;;;;;5113821;28;20035;-71
2023/05/07 03:11:30;;;;;;;0.80;0.80;;;14.60;83.20;;;;;;5113955;28;20084;-71
2023/05/07 03:13:56;;;;;;;1.38;1.17;;;14.60;83.20;;;;;;5095775;28;20051;-71
2023/05/07 03:16:21;;;;;;;1.02;0.90;;;14.60;83.20;;;;;;5095594;28;20125;-71
2023/05/07 03:18:47;;;;;;;0.95;0.90;;;14.60;83.20;;;;;;5114293;28;20054;-71
2023/05/07 03:21:13;;;;;;;0.70;0.70;;;14.60;83.20;;;;;;5113705;28;20408;-72
2023/05/07 03:23:38;;;;;;;1.35;1.15;;;14.60;83.20;;;;;;5114028;28;20068;-71
2023/05/07 03:26:04;;;;;;;1.00;0.90;;;14.60;83.20;;;;;;5095712;28;20099;-71
2023/05/07 03:28:30;;;;;;;0.90;0.80;;;14.60;83.20;;;;;;5113521;28;20046;-71
2023/05/07 03:30:55;;;;;;;0.75;0.75;;;14.60;83.30;;;;;;5113545;28;20039;-71
2023/05/07 03:33:21;;;;;;;1.33;0.98;;;14.60;83.30;;;;;;5113530;28;20034;-72
2023/05/07 03:35:47;;;;;;;1.35;0.90;;;14.60;83.30;;;;;;5078245;28;20042;-71
2023/05/07 03:38:12;;;;;;;0.70;0.70;;;14.60;83.40;;;;;;5113437;28;20058;-71
2023/05/07 03:40:38;;;;;;;0.88;0.80;;;14.50;83.40;;;;;;5095145;28;20036;-71
2023/05/07 03:43:03;;;;;;;1.00;0.95;;;14.60;83.50;;;;;;5113281;28;20138;-71
2023/05/07 03:45:29;;;;;;;1.27;1.00;;;14.50;83.50;;;;;;5113185;28;20036;-71
2023/05/07 03:47:55;;;;;;;1.45;1.00;;;14.50;83.50;;;;;;5095001;28;20481;-71
2023/05/07 03:50:20;;;;;;;1.42;0.90;;;14.50;83.50;;;;;;5113226;28;20040;-71
2023/05/07 03:52:46;;;;;;;0.82;0.80;;;14.50;83.50;;;;;;5113673;28;20040;-71
2023/05/07 03:55:12;;;;;;;1.17;0.98;;;14.50;83.50;;;;;;5113749;28;20082;-71
2023/05/07 03:57:37;;;;;;;1.05;0.98;;;14.50;83.60;;;;;;5078744;28;20412;-71
2023/05/07 04:00:04;;;;;;;0.95;0.88;;;14.40;83.50;;;;;;5113118;28;20060;-70
2023/05/07 04:02:30;;;;;;;1.00;0.90;;;14.40;83.60;;;;;;5113300;28;20039;-71
2023/05/07 04:04:55;;;;;;;1.10;0.90;;;14.50;83.60;;;;;;5113603;28;20123;-71
2023/05/07 04:07:22;;;;;;;1.65;1.10;;;14.50;83.60;;;;;;5113270;28;20122;-71
2023/05/07 04:09:47;;;;;;;1.10;1.00;;;14.50;83.70;;;;;;5113706;28;20035;-71
2023/05/07 04:12:13;;;;;;;0.90;0.90;;;14.50;83.70;;;;;;5095074;28;20377;-71
2023/05/07 04:14:38;;;;;;;1.20;0.98;;;14.40;83.70;;;;;;5092702;28;20371;-71
2023/05/07 04:17:05;;;;;;;1.20;1.10;;;14.40;83.70;;;;;;5112985;28;20047;-71
2023/05/07 04:19:33;;;;;;;1.80;1.10;;;14.50;83.70;;;;;;5113453;28;20381;-71
2023/05/07 04:21:59;;;;;;;1.10;1.00;;;14.30;83.70;;;;;;5113449;28;20031;-71
2023/05/07 04:24:24;;;;;;;1.02;0.93;;;14.40;83.80;;;;;;5112803;28;20119;-71
2023/05/07 04:26:51;;;;;;;0.88;0.85;;;14.40;83.80;;;;;;5094682;28;20053;-72
2023/05/07 04:29:16;;;;;;;0.70;0.70;;;14.40;83.80;;;;;;5077609;28;20071;-71
2023/05/07 04:31:44;;;;;;;0.88;0.82;;;14.40;83.90;;;;;;5095046;28;20062;-71
2023/05/07 04:34:10;;;;;;;1.67;1.30;;;14.40;83.90;;;;;;5095030;28;20070;-71
2023/05/07 04:36:37;;;;;;;1.10;1.00;;;14.40;83.90;;;;;;5113270;28;20055;-72
2023/05/07 04:39:04;;;;;;;0.80;0.80;;;14.40;84.00;;;;;;5094735;28;20092;-72
2023/05/07 04:41:30;;;;;;;1.63;1.20;;;14.40;84.00;;;;;;5093275;28;20043;-71
2023/05/07 04:43:56;;;;;;;1.35;0.95;;;14.40;84.00;;;;;;5113337;28;20040;-72
2023/05/07 04:46:23;;;;;;;1.08;0.90;;;14.40;84.00;;;;;;5094627;28;20468;-72
2023/05/07 04:48:49;;;;;;;1.10;0.90;;;14.30;83.90;;;;;;5112735;28;20032;-71
2023/05/07 04:51:15;;;;;;;0.75;0.75;;;14.40;84.00;;;;;;5094824;28;20481;-71
2023/05/07 04:53:40;;;;;;;0.70;0.70;;;14.40;84.00;;;;;;5113254;28;20498;-71
2023/05/07 04:56:06;;;;;;;1.20;1.00;;;14.40;84.00;;;;;;5112550;28;20042;-72
2023/05/07 04:58:32;;;;;;;1.00;0.90;;;14.40;84.00;;;;;;5078090;28;20048;-71
2023/05/07 05:00:58;;;;;;;1.17;0.90;;;14.40;84.10;;;;;;5095313;28;20047;-71
2023/05/07 05:03:24;;;;;;;1.50;1.00;;;14.40;84.10;;;;;;5116074;28;20058;-71
2023/05/07 05:05:51;;;;;;;1.52;0.90;;;14.40;84.10;;;;;;5097714;28;20053;-72
2023/05/07 05:08:17;;;;;;;1.52;1.20;;;14.50;84.20;;;;;;5116013;28;20085;-71
2023/05/07 05:10:43;;;;;;;1.30;1.20;;;14.40;84.10;;;;;;5116065;28;20035;-72
2023/05/07 05:13:09;;;;;;;1.33;0.90;;;14.50;84.20;;;;;;5097482;28;20086;-71
2023/05/07 05:15:35;;;;;;;1.15;1.05;;;14.50;84.20;;;;;;5096381;28;20040;-72
2023/05/07 05:18:01;;;;;;;1.00;0.85;;;14.50;84.30;;;;;;5115952;28;20073;-71
2023/05/07 05:20:26;;;;;;;0.98;0.90;;;14.50;84.30;;;;;;5115737;28;20096;-71
2023/05/07 05:22:52;;;;;;;0.80;0.70;;;14.50;84.30;;;;;;5097574;28;20071;-72
2023/05/07 05:25:18;;;;;;;0.80;0.80;;;14.50;84.20;;;;;;5116190;28;20067;-72
2023/05/07 05:27:43;;;;;;;1.08;0.98;;;14.50;84.20;;;;;;5116173;28;20506;-71
2023/05/07 05:30:12;;;;;;;1.27;1.10;;;14.50;84.20;;;;;;5097863;28;20046;-71
2023/05/07 05:32:38;;;;;;;1.00;0.90;;;14.50;84.20;;;;;;5115756;28;20036;-71
2023/05/07 05:35:04;;;;;;;0.88;0.80;;;14.60;84.20;;;;;;5098310;28;20062;-71
2023/05/07 05:37:31;;;;;;;1.33;1.00;;;14.60;84.20;;;;;;5115678;28;20042;-71
2023/05/07 05:39:57;;;;;;;0.90;0.80;;;14.70;84.30;;;;;;5115667;28;20495;-71
2023/05/07 05:42:23;;;;;;;1.45;1.08;;;14.70;84.20;;;;;;5116079;28;20131;-72
2023/05/07 05:44:49;;;;;;;0.90;0.90;;;14.70;84.20;;;;;;5115466;28;20032;-72
2023/05/07 05:47:14;;;;;;;1.25;0.90;;;14.70;84.20;;;;;;5097309;28;20077;-71
2023/05/07 05:49:40;;;;;;;1.23;1.00;;;14.70;84.30;;;;;;5115318;28;20043;-71
2023/05/07 05:52:05;;;;;;;0.82;0.80;;;14.70;84.20;;;;;;5063455;28;20480;-71
2023/05/07 05:54:31;;;;;;;1.05;0.95;;;14.70;84.30;;;;;;5096919;28;20063;-72
2023/05/07 05:56:57;;;;;;;0.80;0.80;;;14.80;84.30;;;;;;5096132;28;20044;-72
2023/05/07 05:59:23;;;;;;;0.98;0.88;;;14.80;84.40;;;;;;5097101;28;20031;-71
2023/05/07 06:01:48;;;;;;;0.88;0.88;;;14.80;84.30;;;;;;5097578;28;20078;-71
2023/05/07 06:04:14;;;;;;;1.10;0.95;;;14.80;84.40;;;;;;5115130;28;20032;-71
2023/05/07 06:06:40;;;;;;;1.30;1.05;;;14.80;84.30;;;;;;5115090;28;20094;-72
2023/05/07 06:09:05;;;;;;;0.90;0.90;;;14.90;84.40;;;;;;5115397;28;20043;-72
2023/05/07 06:11:32;;;;;;;1.02;0.90;;;14.90;84.40;;;;;;5096984;28;20032;-71
2023/05/07 06:14:01;;;;;;;1.27;1.17;;;14.90;84.40;;;;;;5096828;28;20040;-72
2023/05/07 06:16:26;;;;;;;0.88;0.82;;;14.90;84.40;;;;;;5115310;28;20040;-71
2023/05/07 06:18:54;;;;;;;1.20;1.10;;;14.90;84.40;;;;;;5095028;28;20398;-72
2023/05/07 06:21:20;;;;;;;1.70;1.40;;;15.00;84.30;;;;;;5063831;28;20035;-72
2023/05/07 06:23:46;;;;;;;1.25;1.10;;;15.00;84.30;;;;;;5114893;28;20506;-72
2023/05/07 06:26:11;;;;;;;1.33;1.10;;;15.00;84.30;;;;;;5114837;28;20040;-72
2023/05/07 06:28:37;;;;;;;1.38;1.10;;;15.00;84.30;;;;;;5115169;28;20027;-71
2023/05/07 06:31:20;;;;;;;0.80;0.80;;;15.10;84.40;;;;;;5115149;28;20048;-71
2023/05/07 06:33:46;;;;;;;1.10;1.00;;;15.10;84.40;;;;;;5079122;28;20036;-72
2023/05/07 06:36:12;;;;;;;1.42;1.17;;;15.10;84.30;;;;;;5115028;28;20043;-71
2023/05/07 06:38:38;;;;;;;1.13;1.02;;;15.20;84.30;;;;;;5077823;28;20063;-72
2023/05/07 06:41:05;;;;;;;1.20;1.10;;;15.30;84.20;;;;;;5114758;28;20054;-71
2023/05/07 06:43:30;;;;;;;1.00;0.90;;;15.30;84.00;;;;;;5114757;28;20093;-71
2023/05/07 06:45:56;;;;;;;0.80;0.80;;;15.40;84.00;;;;;;5060969;28;20481;-72
2023/05/07 06:48:22;;;;;;;0.82;0.82;;;15.40;83.90;;;;;;5096468;28;20040;-71
2023/05/07 06:50:47;;;;;;;1.25;1.08;;;15.50;83.90;;;;;;5114495;28;20123;-72
2023/05/07 06:53:13;;;;;;;1.45;1.10;;;15.50;83.80;;;;;;5094737;28;20044;-71
2023/05/07 06:55:39;;;;;;;1.27;1.10;;;15.60;83.80;;;;;;5114719;28;20040;-72
2023/05/07 06:58:05;;;;;;;1.92;1.30;;;15.60;83.90;;;;;;5095508;28;20040;-72
2023/05/07 07:00:31;;;;;;;1.20;1.10;;;15.60;83.80;;;;;;5096112;28;20616;-72
2023/05/07 07:02:57;;;;;;;1.63;1.15;;;15.60;83.80;;;;;;5114123;28;20049;-72
2023/05/07 07:05:22;;;;;;;1.63;1.30;;;15.60;83.70;;;;;;5096048;28;20050;-71
2023/05/07 07:07:52;;;;;;;1.60;0.98;;;15.70;83.70;;;;;;5113861;28;20031;-71
2023/05/07 07:10:19;;;;;;;1.60;1.20;;;15.70;83.70;;;;;;5113968;28;20043;-71
2023/05/07 07:12:45;;;;;;;1.20;1.10;;;15.80;83.80;;;;;;5114152;28;20035;-71
2023/05/07 07:15:11;;;;;;;1.60;1.40;;;15.80;83.70;;;;;;5114144;28;20048;-72
2023/05/07 07:17:37;;;;;;;1.40;1.30;;;15.80;83.60;;;;;;5114153;28;20424;-72
2023/05/07 07:20:03;;;;;;;2.00;1.45;;;15.90;83.60;;;;;;5113866;28;20058;-71
2023/05/07 07:22:29;;;;;;;1.85;1.38;;;15.90;83.60;;;;;;5114281;28;20047;-71
2023/05/07 07:24:54;;;;;;;1.40;1.30;;;15.90;83.70;;;;;;5078099;28;20122;-72
2023/05/07 07:27:20;;;;;;;1.05;1.00;;;15.90;83.80;;;;;;5113909;28;20101;-71
2023/05/07 07:29:46;;;;;;;1.42;1.25;;;15.90;83.90;;;;;;5094147;28;20425;-71
2023/05/07 07:32:11;;;;;;;1.70;1.40;;;16.00;83.90;;;;;;5095664;28;20036;-72
2023/05/07 07:34:37;;;;;;;1.73;1.42;;;16.00;83.70;;;;;;5113833;28;20035;-71
2023/05/07 07:37:05;;;;;;;1.98;1.40;;;16.10;83.80;;;;;;5113785;28;20031;-71
2023/05/07 07:39:32;;;;;;;1.48;1.30;;;16.10;83.60;;;;;;5095595;28;20094;-71
2023/05/07 07:41:58;;;;;;;1.52;1.27;;;16.10;83.70;;;;;;5113493;28;20077;-71
2023/05/07 07:44:23;;;;;;;1.73;1.50;;;16.00;83.70;;;;;;5113489;28;20048;-71
2023/05/07 07:46:50;;;;;;;2.53;1.50;;;16.10;83.80;;;;;;5095444;28;20032;-72
2023/05/07 07:49:16;;;;;;;2.00;1.40;;;16.10;83.80;;;;;;5095755;28;20040;-71
2023/05/07 07:51:41;;;;;;;1.50;1.40;;;16.10;83.80;;;;;;5095330;28;20045;-71
2023/05/07 07:54:07;;;;;;;2.20;1.52;;;16.10;83.90;;;;;;5113555;28;20530;-72
2023/05/07 07:56:34;;;;;;;2.55;1.58;;;16.10;83.80;;;;;;5114013;28;20043;-72
2023/05/07 07:58:59;;;;;;;1.75;1.42;;;16.00;83.80;;;;;;5113367;28;20043;-72
2023/05/07 08:01:26;;;;;;;2.03;1.52;;;16.10;83.90;;;;;;5094421;28;20500;-73
2023/05/07 08:03:51;;;;;;;2.38;1.73;;;16.10;83.90;;;;;;5093999;28;20044;-72
2023/05/07 08:06:17;;;;;;;1.60;1.38;;;16.20;84.00;;;;;;5094948;28;20050;-72
2023/05/07 08:08:43;;;;;;;2.10;1.40;;;16.20;83.90;;;;;;5095449;28;20082;-71
2023/05/07 08:11:08;;;;;;;1.35;1.20;;;16.20;83.80;;;;;;5113199;28;20130;-71
2023/05/07 08:13:34;;;;;;;2.03;1.60;;;16.30;83.90;;;;;;5113328;28;20031;-71
2023/05/07 08:16:00;;;;;;;1.75;1.40;;;16.20;83.90;;;;;;5113486;28;20039;-72
2023/05/07 08:18:28;;;;;;;2.17;1.50;;;16.30;84.00;;;;;;5113572;28;20066;-72
2023/05/07 08:20:53;;;;;;;1.80;1.50;;;16.40;83.90;;;;;;5095269;28;20036;-73
2023/05/07 08:23:19;;;;;;;1.80;1.38;;;16.40;83.80;;;;;;5113114;28;20035;-72
2023/05/07 08:25:45;;;;;;;2.10;1.50;;;16.50;83.80;;;;;;5094678;28;20059;-72
2023/05/07 08:28:11;;;;;;;1.80;1.40;;;16.60;83.60;;;;;;5112828;28;20066;-72
2023/05/07 08:30:37;;;;;;;1.80;1.30;;;16.60;83.50;;;;;;5093187;28;20064;-72
2023/05/07 08:33:02;;;;;;;1.55;1.42;;;16.70;83.40;;;;;;5078257;28;20036;-72
2023/05/07 08:35:28;;;;;;;1.85;1.55;;;16.80;83.40;;;;;;5093984;28;20048;-72
2023/05/07 08:37:54;;;;;;;2.13;1.38;;;16.80;83.30;;;;;;5092945;28;20127;-72
2023/05/07 08:40:24;;;;;;;1.75;1.27;;;16.90;83.20;;;;;;5112841;28;20039;-72
2023/05/07 08:42:51;;;;;;;2.03;1.60;;;17.00;83.10;;;;;;5078048;28;20043;-72
2023/05/07 08:45:18;;;;;;;2.35;1.33;;;17.00;83.00;;;;;;5112855;28;20040;-72
2023/05/07 08:47:47;;;;;;;2.25;1.50;;;17.10;82.90;;;;;;5112592;28;20039;-71
2023/05/07 08:50:13;;;;;;;1.98;1.48;;;17.10;82.80;;;;;;5095154;28;20047;-72
2023/05/07 08:52:42;;;;;;;1.85;1.50;;;17.10;82.90;;;;;;5092659;28;20046;-73
2023/05/07 08:55:08;;;;;;;2.10;1.45;;;17.10;83.00;;;;;;5109325;28;20108;-72
2023/05/07 08:57:35;;;;;;;2.17;1.40;;;17.10;83.00;;;;;;5112897;28;20047;-72
2023/05/07 09:00:01;;;;;;;1.70;1.45;;;17.10;83.00;;;;;;5094903;28;20035;-72
2023/05/07 09:02:27;;;;;;;3.58;1.63;;;17.20;83.10;;;;;;5095207;28;20469;-72
2023/05/07 09:04:53;;;;;;;2.55;1.73;;;17.20;83.00;;;;;;5094400;28;20097;-72
2023/05/07 09:07:20;;;;;;;2.40;1.55;;;17.20;83.10;;;;;;5093785;28;20039;-72
2023/05/07 09:09:46;;;;;;;1.55;1.33;;;17.30;83.10;;;;;;5112931;28;20044;-72
2023/05/07 09:12:12;;;;;;;2.53;1.55;;;17.30;83.00;;;;;;5092670;28;20054;-72
2023/05/07 09:14:39;;;;;;;1.40;1.30;;;17.50;82.90;;;;;;5112233;28;20036;-72
2023/05/07 09:17:04;;;;;;;2.53;1.60;;;17.70;82.70;;;;;;5112589;28;20097;-72
2023/05/07 09:19:30;;;;;;;2.17;1.50;;;17.90;82.30;;;;;;5094186;28;20035;-73
2023/05/07 09:22:00;;;;;;;2.05;1.52;;;18.00;81.80;;;;;;5092407;28;20131;-73
2023/05/07 09:24:28;;;;;;;2.05;1.58;;;18.20;81.50;;;;;;5112291;28;20067;-72
2023/05/07 09:26:55;;;;;;;1.75;1.50;;;18.30;81.30;;;;;;5112257;28;20044;-72
2023/05/07 09:29:21;;;;;;;2.28;1.58;;;18.30;81.20;;;;;;5077106;28;20040;-73
2023/05/07 09:31:46;;;;;;;2.15;1.60;;;18.30;81.20;;;;;;5112228;28;20040;-73
2023/05/07 09:34:12;;;;;;;1.63;1.45;;;18.40;81.20;;;;;;5092103;28;20068;-73
2023/05/07 09:36:38;;;;;;;2.75;1.73;;;18.40;81.30;;;;;;5094126;28;20039;-73
2023/05/07 09:39:03;;;;;;;3.08;1.85;;;18.50;81.30;;;;;;5093941;28;20545;-72
2023/05/07 09:41:32;;;;;;;1.25;1.15;;;18.50;81.80;;;;;;5094003;28;20055;-73
2023/05/07 09:43:58;;;;;;;1.83;1.30;;;18.60;81.10;;;;;;5112391;28;20067;-73
2023/05/07 09:46:29;;;;;;;3.03;1.95;;;18.70;81.10;;;;;;5094062;28;20070;-72
2023/05/07 09:48:58;;;;;;;1.95;1.50;;;18.80;80.90;;;;;;5116060;28;20123;-71
2023/05/07 09:51:29;;;;;;;2.58;1.77;;;18.80;80.70;;;;;;5116073;28;20035;-71
2023/05/07 09:53:59;;;;;;;2.08;1.58;;;18.90;80.70;;;;;;5115720;28;20138;-72
2023/05/07 09:56:26;;;;;;;1.67;1.30;;;18.90;80.60;;;;;;5116025;28;20067;-71
2023/05/07 09:58:55;;;;;;;2.42;1.77;;;19.00;80.60;;;;;;5115365;28;20177;-71
2023/05/07 10:01:22;;;;;;;2.17;1.55;;;19.10;80.70;;;;;;5115967;28;20040;-71
2023/05/07 10:03:51;;;;;;;1.73;1.42;;;19.10;80.30;;;;;;5115269;28;20035;-71
2023/05/07 10:06:17;;;;;;;2.60;1.90;;;19.30;80.20;;;;;;5115507;28;20067;-71
2023/05/07 10:08:43;;;;;;;2.22;1.70;;;19.40;80.00;;;;;;5115761;28;20067;-71
2023/05/07 10:11:10;;;;;;;1.42;1.30;;;19.50;79.80;;;;;;5115679;28;20040;-71
2023/05/07 10:13:37;;;;;;;3.33;1.58;;;19.70;79.70;;;;;;5115382;28;20036;-71
2023/05/07 10:16:05;;;;;;;1.67;1.50;;;19.90;79.30;;;;;;5115110;28;20046;-71
2023/05/07 10:18:32;;;;;;;1.58;1.42;;;20.00;79.30;;;;;;5096654;28;20043;-71
2023/05/07 10:21:18;;;;;;;3.55;2.08;;;20.00;79.20;;;;;;5114840;28;20031;-71
2023/05/07 10:23:53;;;;;;;1.92;1.60;;;20.10;79.10;;;;;;5115474;28;20121;-71
2023/05/07 10:26:21;;;;;;;2.60;1.70;;;20.20;79.00;;;;;;5115138;28;20047;-71
2023/05/07 10:28:52;;;;;;;2.00;1.42;;;20.40;79.00;;;;;;5114910;28;20031;-69
2023/05/07 10:31:44;;;;;;;2.58;1.67;;;20.60;78.70;;;;;;5115156;28;20036;-71
2023/05/07 10:34:14;;;;;;;2.45;1.73;;;20.80;78.10;;;;;;5114998;28;20035;-71
2023/05/07 10:36:40;;;;;;;1.65;1.50;;;20.90;78.00;;;;;;5114907;28;20031;-69
2023/05/07 10:39:06;;;;;;;2.40;1.63;;;20.80;78.00;;;;;;5114957;28;20555;-69
2023/05/07 10:41:32;;;;;;;1.40;1.30;;;20.90;78.20;;;;;;5114969;28;20085;-72
2023/05/07 10:44:01;;;;;;;1.42;1.30;;;20.90;78.10;;;;;;5114945;28;20047;-71
2023/05/07 10:46:27;;;;;;;1.80;1.30;;;21.00;78.10;;;;;;5114458;28;20063;-70
2023/05/07 10:49:07;;;;;;;5.22;1.85;;;21.10;77.90;;;;;;5096473;28;20501;-72
2023/05/07 10:51:35;;;;;;;1.40;1.30;;;21.10;78.00;;;;;;5114839;28;20096;-71
2023/05/07 10:54:20;;;;;;;1.88;1.40;;;21.10;78.00;;;;;;5114796;28;20032;-71
2023/05/07 10:56:47;;;;;;;1.40;1.30;;;21.20;78.00;;;;;;5114507;28;20040;-71
2023/05/07 10:59:31;;;;;;;1.80;1.52;;;21.30;77.90;;;;;;5113381;28;20066;-69
2023/05/07 11:01:58;;;;;;;2.08;1.50;;;21.20;77.70;;;;;;5095037;28;20520;-71
2023/05/07 11:04:27;;;;;;;1.42;1.20;;;21.20;77.90;;;;;;5114393;28;20097;-71
2023/05/07 11:07:32;;;;;;;1.90;1.33;;;21.20;77.90;;;;;;5095722;28;20047;-71
2023/05/07 11:10:01;;;;;;;1.48;1.23;;;21.30;77.90;;;;;;5097200;28;20087;-69
2023/05/07 11:12:49;;;;;;;1.38;1.15;;;21.30;77.90;;;;;;5114095;28;20048;-70
2023/05/07 11:15:33;;;;;;;1.30;1.10;;;21.30;77.80;;;;;;5114219;28;20507;-69
2023/05/07 11:17:59;;;;;;;1.63;1.20;;;21.30;78.00;;;;;;5114132;28;20040;-69
2023/05/07 11:21:00;;;;;;;2.38;1.50;;;21.30;77.90;;;;;;5094201;28;20519;-69
2023/05/07 11:23:55;;;;;;;1.48;1.20;;;21.30;77.70;;;;;;5095552;28;20040;-70
2023/05/07 11:26:21;;;;;;;1.60;1.33;;;21.40;77.70;;;;;;5113860;28;20124;-70
2023/05/07 11:28:48;;;;;;;1.42;1.23;;;21.40;77.60;;;;;;5114582;28;20127;-70
2023/05/07 11:31:13;;;;;;;1.40;1.30;;;21.50;77.50;;;;;;5114681;28;20040;-70
2023/05/07 11:33:39;;;;;;;1.30;1.20;;;21.60;77.30;;;;;;5113901;28;20504;-70
2023/05/07 11:36:07;;;;;;;1.58;1.23;;;21.70;77.20;;;;;;5113865;28;20032;-70
2023/05/07 11:38:37;;;;;;;1.42;1.30;;;21.70;77.10;;;;;;5113975;28;20055;-70
2023/05/07 11:41:04;;;;;;;1.75;1.20;;;21.70;77.00;;;;;;5094899;28;20036;-69
2023/05/07 11:43:32;;;;;;;1.63;1.30;;;21.70;77.00;;;;;;5113606;28;20039;-70
2023/05/07 11:46:07;;;;;;;1.50;1.30;;;21.70;77.00;;;;;;5113391;28;20043;-70
2023/05/07 11:48:33;;;;;;;2.00;1.48;;;21.70;77.00;;;;;;5113363;28;20059;-70
2023/05/07 11:51:03;;;;;;;1.80;1.48;;;21.70;77.00;;;;;;5113967;28;20074;-70
2023/05/07 11:53:37;;;;;;;2.13;1.50;;;21.70;77.00;;;;;;5113451;28;20147;-70
2023/05/07 11:56:07;;;;;;;1.92;1.23;;;21.60;77.10;;;;;;5113654;28;20096;-70
2023/05/07 11:58:33;;;;;;;2.03;1.70;;;21.70;77.10;;;;;;5113905;28;20047;-70
2023/05/07 12:00:59;;;;;;;2.10;1.42;;;21.60;77.10;;;;;;5113502;28;20512;-71
2023/05/07 12:03:25;;;;;;;1.35;1.17;;;21.70;77.10;;;;;;5113356;28;20044;-70
2023/05/07 12:05:50;;;;;;;1.20;1.10;;;21.70;77.00;;;;;;5113125;28;20051;-70
2023/05/07 12:08:18;;;;;;;2.40;1.50;;;21.80;76.90;;;;;;5093699;28;20044;-69
2023/05/07 12:10:45;;;;;;;1.40;1.30;;;21.80;76.80;;;;;;5112864;28;20039;-69
2023/05/07 12:13:25;;;;;;;1.23;1.13;;;21.70;76.90;;;;;;5095064;28;20039;-70
2023/05/07 12:15:53;;;;;;;1.77;1.23;;;21.70;76.90;;;;;;5113548;28;20098;-69
2023/05/07 12:18:19;;;;;;;1.20;1.10;;;21.70;77.00;;;;;;5113100;28;20069;-69
2023/05/07 12:20:45;;;;;;;1.50;1.30;;;21.60;77.00;;;;;;5113171;28;20104;-69
2023/05/07 12:23:11;;;;;;;1.17;1.08;;;21.50;77.30;;;;;;5113183;28;20485;-69
2023/05/07 12:25:38;;;;;;;1.55;1.20;;;21.50;77.50;;;;;;5094743;28;20516;-70
2023/05/07 12:28:05;;;;;;;1.60;1.33;;;21.50;77.60;;;;;;5112689;28;20039;-69
2023/05/07 12:30:39;;;;;;;1.80;1.60;;;21.40;77.60;;;;;;5112807;28;20546;-70
2023/05/07 12:33:04;;;;;;;1.95;1.27;;;21.30;77.70;;;;;;5093377;28;20048;-70
2023/05/07 12:35:32;;;;;;;1.50;1.40;;;21.30;77.80;;;;;;5094540;28;20047;-69
2023/05/07 12:37:59;;;;;;;1.55;1.40;;;21.20;77.80;;;;;;5112663;28;20036;-70
2023/05/07 12:40:37;;;;;;;1.60;1.38;;;21.20;77.70;;;;;;5094587;28;20539;-70
2023/05/07 12:43:02;;;;;;;1.17;1.02;;;21.30;77.70;;;;;;5092859;28;20040;-69
2023/05/07 12:45:28;;;;;;;1.42;1.33;;;21.30;77.70;;;;;;5112777;28;20126;-69
2023/05/07 12:47:54;;;;;;;1.77;1.27;;;21.30;77.60;;;;;;5112403;28;20477;-70